Time;durP1;ratioP1;P1;durP2;ratioP2;P2;SDS_P1;SDS_P2;PMS_P1;PMS_P2;Temp;Humidity;BMP_temperature;BMP_pressure;BME280_temperature;BME280_humidity;BME280_pressure;Samples;Min_cycle;Max_cycle;Signal;HPM_P1;HPM_P2
2022/11/09 00:00:11;;;;;;;8.52;5.88;;;;;;;5.20;100.00;92726.50;2131666;27;20018;-71
2022/11/09 00:01:12;;;;;;;12.18;6.10;;;;;;;5.20;100.00;92718.56;2127720;27;20665;-71
2022/11/09 00:02:13;;;;;;;8.32;5.50;;;;;;;5.16;100.00;92720.47;2131631;27;20108;-71
2022/11/09 00:03:14;;;;;;;8.10;5.07;;;;;;;5.15;100.00;92725.03;2131650;27;20341;-71
2022/11/09 00:04:15;;;;;;;6.85;5.30;;;;;;;5.16;100.00;92725.78;2131522;27;20026;-71
2022/11/09 00:05:16;;;;;;;8.73;5.85;;;;;;;5.09;100.00;92726.56;2131650;27;20532;-71
2022/11/09 00:06:16;;;;;;;9.88;5.65;;;;;;;5.07;100.00;92728.88;2129144;27;20038;-71
2022/11/09 00:07:17;;;;;;;10.82;5.50;;;;;;;5.11;100.00;92731.50;2131554;27;20527;-71
2022/11/09 00:08:18;;;;;;;6.88;5.97;;;;;;;5.11;100.00;92729.59;2131732;27;20023;-71
2022/11/09 00:09:19;;;;;;;10.55;5.60;;;;;;;5.16;100.00;92725.78;2127255;27;20027;-71
2022/11/09 00:10:20;;;;;;;8.25;5.63;;;;;;;5.22;100.00;92724.19;2131622;27;20029;-71
2022/11/09 00:11:21;;;;;;;9.48;5.68;;;;;;;5.32;100.00;92719.97;2131054;27;20054;-71
2022/11/09 00:12:22;;;;;;;11.40;5.55;;;;;;;5.33;100.00;92729.44;2131494;27;20031;-71
2022/11/09 00:13:23;;;;;;;11.63;5.68;;;;;;;5.29;100.00;92727.56;2131519;27;20034;-71
2022/11/09 00:14:24;;;;;;;8.38;5.28;;;;;;;5.30;100.00;92723.75;2131453;27;20027;-71
2022/11/09 00:15:25;;;;;;;9.30;5.82;;;;;;;5.32;100.00;92717.31;2131507;27;20030;-71
2022/11/09 00:16:26;;;;;;;8.68;5.28;;;;;;;5.28;100.00;92720.75;2129998;27;20030;-71
2022/11/09 00:17:27;;;;;;;6.32;4.93;;;;;;;5.30;100.00;92717.69;2131410;27;20023;-71
2022/11/09 00:18:29;;;;;;;9.63;5.70;;;;;;;5.28;100.00;92723.41;2131502;27;20037;-71
2022/11/09 00:19:29;;;;;;;9.45;5.43;;;;;;;5.24;100.00;92727.97;2131456;27;20333;-71
2022/11/09 00:20:30;;;;;;;9.18;5.82;;;;;;;5.26;100.00;92722.28;2131487;27;20037;-71
2022/11/09 00:21:31;;;;;;;10.38;5.43;;;;;;;5.27;100.00;92718.50;2130617;27;20364;-73
2022/11/09 00:22:34;;;;;;;9.32;4.90;;;;;;;5.24;100.00;92719.28;2131293;27;20456;-71
2022/11/09 00:23:35;;;;;;;13.02;6.05;;;;;;;5.20;100.00;92724.59;2131174;27;20027;-71
2022/11/09 00:24:36;;;;;;;11.65;5.68;;;;;;;5.15;100.00;92718.97;2131494;27;20471;-70
2022/11/09 00:25:37;;;;;;;7.72;5.30;;;;;;;5.16;100.00;92723.13;2131421;27;20027;-71
2022/11/09 00:26:38;;;;;;;9.80;5.75;;;;;;;5.12;100.00;92728.44;2130800;27;20035;-72
2022/11/09 00:27:39;;;;;;;7.57;5.20;;;;;;;5.12;100.00;92725.78;2129599;27;20030;-72
2022/11/09 00:28:40;;;;;;;7.85;5.32;;;;;;;5.17;100.00;92728.03;2131373;27;20054;-73
2022/11/09 00:29:42;;;;;;;10.23;5.32;;;;;;;5.18;100.00;92732.19;2131260;27;20528;-71
2022/11/09 00:30:43;;;;;;;10.50;5.15;;;;;;;5.20;100.00;92716.66;2131345;27;20030;-71
2022/11/09 00:31:44;;;;;;;8.85;5.07;;;;;;;5.21;100.00;92726.09;2131373;27;20103;-71
2022/11/09 00:32:45;;;;;;;11.90;5.65;;;;;;;5.17;100.00;92725.38;2130575;27;20038;-71
2022/11/09 00:33:54;;;;;;;9.05;5.20;;;;;;;5.18;100.00;92726.91;2131377;27;20070;-71
2022/11/09 00:34:55;;;;;;;7.93;4.80;;;;;;;5.18;100.00;92728.78;2127825;27;20121;-72
2022/11/09 00:35:56;;;;;;;13.05;6.10;;;;;;;5.22;100.00;92730.28;2131045;27;20027;-71
2022/11/09 00:36:57;;;;;;;10.18;5.55;;;;;;;5.16;100.00;92723.13;2131360;27;20057;-71
2022/11/09 00:37:58;;;;;;;8.88;5.10;;;;;;;5.15;100.00;92725.03;2130403;27;20030;-71
2022/11/09 00:39:00;;;;;;;9.93;4.93;;;;;;;5.18;100.00;92724.25;2131397;27;20031;-71
2022/11/09 00:40:01;;;;;;;9.10;5.30;;;;;;;5.33;100.00;92722.22;2131407;27;20038;-71
2022/11/09 00:41:03;;;;;;;8.30;5.07;;;;;;;5.49;100.00;92719.06;2131435;27;20023;-71
2022/11/09 00:42:06;;;;;;;10.35;5.47;;;;;;;5.62;100.00;92716.66;2122065;27;20093;-71
2022/11/09 00:43:07;;;;;;;11.05;5.45;;;;;;;5.53;100.00;92723.19;2121724;27;20106;-71
2022/11/09 00:44:08;;;;;;;10.70;5.15;;;;;;;5.56;100.00;92719.00;2131396;27;20023;-71
2022/11/09 00:45:09;;;;;;;10.75;5.03;;;;;;;5.48;100.00;92720.19;2131472;27;20023;-71
2022/11/09 00:46:10;;;;;;;14.57;5.65;;;;;;;5.44;100.00;92722.88;2131019;27;20035;-71
2022/11/09 00:47:11;;;;;;;9.60;5.38;;;;;;;5.38;100.00;92719.16;2131194;27;20378;-71
2022/11/09 00:48:12;;;;;;;10.65;5.13;;;;;;;5.40;100.00;92714.22;2130381;27;20046;-71
2022/11/09 00:49:13;;;;;;;7.95;5.15;;;;;;;5.54;100.00;92718.66;2131037;27;20090;-70
2022/11/09 00:50:14;;;;;;;10.05;5.60;;;;;;;5.55;100.00;92715.59;2131251;27;20468;-70
2022/11/09 00:51:15;;;;;;;8.10;5.00;;;;;;;5.65;100.00;92718.53;2131244;27;20110;-70
2022/11/09 00:52:16;;;;;;;13.35;5.10;;;;;;;5.66;100.00;92720.03;2131396;27;20075;-71
2022/11/09 00:53:18;;;;;;;10.63;5.15;;;;;;;5.60;100.00;92721.63;2113527;28;20028;-70
2022/11/09 00:54:19;;;;;;;9.05;6.20;;;;;;;5.55;100.00;92723.53;2110532;27;20102;-70
2022/11/09 00:55:22;;;;;;;8.75;4.97;;;;;;;5.50;100.00;92716.03;2131266;27;20029;-70
2022/11/09 00:56:23;;;;;;;10.20;5.13;;;;;;;5.51;100.00;92709.56;2129790;27;20457;-70
2022/11/09 00:57:24;;;;;;;14.30;5.28;;;;;;;5.48;100.00;92718.28;2131224;27;20030;-71
2022/11/09 00:58:27;;;;;;;9.80;5.30;;;;;;;5.49;100.00;92719.06;2131070;27;20022;-71
2022/11/09 00:59:28;;;;;;;9.25;5.20;;;;;;;5.45;100.00;92711.16;2130192;27;20422;-71
2022/11/09 01:00:29;;;;;;;12.80;5.60;;;;;;;5.48;100.00;92709.59;2130340;27;20110;-71
2022/11/09 01:01:30;;;;;;;9.90;5.05;;;;;;;5.44;100.00;92706.97;2131195;27;20030;-70
2022/11/09 01:02:31;;;;;;;8.88;4.85;;;;;;;5.49;100.00;92705.81;2131298;27;20019;-71
2022/11/09 01:03:32;;;;;;;7.28;5.40;;;;;;;5.48;100.00;92709.59;2131308;27;20496;-71
2022/11/09 01:04:33;;;;;;;10.55;5.28;;;;;;;5.47;100.00;92711.50;2130020;27;20635;-70
2022/11/09 01:05:38;;;;;;;10.30;5.40;;;;;;;5.47;100.00;92722.09;2131124;27;20037;-70
2022/11/09 01:06:39;;;;;;;9.73;5.28;;;;;;;5.48;100.00;92728.16;2130636;27;20109;-72
2022/11/09 01:07:40;;;;;;;10.95;5.40;;;;;;;5.49;100.00;92730.44;2130863;27;20050;-71
2022/11/09 01:08:41;;;;;;;8.98;5.32;;;;;;;5.50;100.00;92721.31;2130998;27;20187;-71
2022/11/09 01:09:42;;;;;;;11.45;6.03;;;;;;;5.48;100.00;92715.66;2129974;27;20135;-71
2022/11/09 01:10:45;;;;;;;9.05;5.38;;;;;;;5.49;100.00;92719.81;2131122;27;20030;-71
2022/11/09 01:11:46;;;;;;;8.57;5.75;;;;;;;5.51;100.00;92722.06;2131119;27;20043;-71
2022/11/09 01:12:47;;;;;;;10.52;5.57;;;;;;;5.54;100.00;92718.66;2130894;27;20034;-71
2022/11/09 01:13:48;;;;;;;8.40;5.65;;;;;;;5.54;100.00;92721.28;2131328;27;20463;-71
2022/11/09 01:14:48;;;;;;;11.57;6.00;;;;;;;5.53;100.00;92720.53;2130547;27;20045;-72
2022/11/09 01:15:52;;;;;;;8.45;5.50;;;;;;;5.54;100.00;92722.03;2126504;27;20478;-71
2022/11/09 01:16:53;;;;;;;10.48;5.88;;;;;;;5.54;100.00;92716.75;2130603;27;20480;-72
2022/11/09 01:17:54;;;;;;;12.63;6.05;;;;;;;5.59;100.00;92720.13;2130945;27;20033;-71
2022/11/09 01:18:57;;;;;;;10.50;5.57;;;;;;;5.64;100.00;92715.13;2131011;27;20036;-71
2022/11/09 01:19:58;;;;;;;9.40;5.60;;;;;;;5.66;100.00;92717.38;2130226;27;20026;-71
2022/11/09 01:21:01;;;;;;;12.45;6.25;;;;;;;5.65;100.00;92715.88;2130747;27;20379;-71
2022/11/09 01:22:02;;;;;;;8.88;6.53;;;;;;;5.63;100.00;92721.59;2131048;27;20464;-71
2022/11/09 01:23:03;;;;;;;16.40;6.63;;;;;;;5.62;100.00;92717.44;2131029;27;20026;-71
2022/11/09 01:24:05;;;;;;;10.43;6.28;;;;;;;5.74;100.00;92724.13;2131146;27;20180;-72
2022/11/09 01:25:06;;;;;;;12.98;6.28;;;;;;;5.79;100.00;92718.38;2130304;27;20358;-71
2022/11/09 01:26:09;;;;;;;16.90;6.28;;;;;;;5.79;100.00;92715.72;2130380;27;20040;-71
2022/11/09 01:27:10;;;;;;;9.45;5.70;;;;;;;5.80;100.00;92717.25;2130984;27;20030;-71
2022/11/09 01:28:11;;;;;;;9.38;6.00;;;;;;;5.79;100.00;92718.38;2130929;27;20360;-72
2022/11/09 01:29:12;;;;;;;8.40;5.75;;;;;;;5.73;100.00;92720.72;2130827;27;20031;-71
2022/11/09 01:30:13;;;;;;;11.15;5.78;;;;;;;5.72;100.00;92721.88;2130142;27;20023;-71
2022/11/09 01:31:17;;;;;;;13.73;6.10;;;;;;;5.73;100.00;92725.28;2130595;27;20377;-71
2022/11/09 01:32:18;;;;;;;9.15;6.03;;;;;;;5.73;100.00;92728.69;2130907;27;20041;-71
2022/11/09 01:33:19;;;;;;;8.38;5.50;;;;;;;5.76;100.00;92722.59;2126671;27;20031;-71
2022/11/09 01:34:20;;;;;;;9.82;6.25;;;;;;;5.83;100.00;92727.06;2130966;27;20105;-71
2022/11/09 01:35:21;;;;;;;9.48;5.85;;;;;;;5.82;100.00;92730.88;2130498;27;20035;-71
2022/11/09 01:36:23;;;;;;;11.45;6.85;;;;;;;5.78;100.00;92724.84;2130268;27;20035;-71
2022/11/09 01:37:24;;;;;;;11.23;6.55;;;;;;;5.80;100.00;92733.16;2130787;27;20050;-71
2022/11/09 01:38:25;;;;;;;12.80;6.78;;;;;;;5.83;100.00;92732.34;2130852;27;20026;-72
2022/11/09 01:39:26;;;;;;;10.95;6.95;;;;;;;5.82;100.00;92731.63;2130624;27;20050;-72
2022/11/09 01:40:28;;;;;;;9.15;6.50;;;;;;;5.88;100.00;92725.88;2130104;27;20521;-72
2022/11/09 01:41:28;;;;;;;8.70;6.60;;;;;;;5.98;100.00;92727.72;2130467;27;20101;-72
2022/11/09 01:42:35;;;;;;;8.95;6.70;;;;;;;6.16;100.00;92727.50;2130782;27;20080;-71
2022/11/09 01:43:36;;;;;;;9.20;6.80;;;;;;;6.19;100.00;92730.13;2130792;27;20026;-71
2022/11/09 01:44:37;;;;;;;10.00;6.90;;;;;;;6.14;100.00;92727.13;2130662;27;20071;-71
2022/11/09 01:45:38;;;;;;;10.18;7.10;;;;;;;6.02;100.00;92720.47;2130025;27;20540;-71
2022/11/09 01:46:48;;;;;;;11.13;7.57;;;;;;;6.00;100.00;92725.41;2130450;27;20102;-71
2022/11/09 01:48:21;;;;;;;11.13;7.55;;;;;;;5.94;100.00;92727.75;2130576;27;20034;-72
2022/11/09 01:49:48;;;;;;;11.57;7.82;;;;;;;5.94;100.00;92730.38;2087606;28;20155;-72
2022/11/09 01:50:53;;;;;;;9.20;7.43;;;;;;;5.95;100.00;92734.53;2130578;27;20038;-71
2022/11/09 01:52:06;;;;;;;9.93;6.80;;;;;;;6.07;100.00;92729.88;2127488;27;20038;-71
2022/11/09 01:53:12;;;;;;;14.25;6.03;;;;;;;6.17;100.00;92729.00;2130670;27;20026;-71
2022/11/09 01:54:24;;;;;;;7.68;5.68;;;;;;;6.08;100.00;92724.19;2130647;27;20045;-71
2022/11/09 01:55:26;;;;;;;10.25;5.97;;;;;;;6.02;100.00;92718.56;2127231;27;20098;-72
2022/11/09 01:56:28;;;;;;;10.52;5.80;;;;;;;5.99;100.00;92723.91;2129993;27;20022;-71
2022/11/09 01:57:37;;;;;;;8.45;5.70;;;;;;;5.99;100.00;92723.91;2130324;27;20535;-71
2022/11/09 01:58:48;;;;;;;10.32;6.55;;;;;;;5.99;100.00;92724.66;2130643;27;20030;-71
2022/11/09 01:59:57;;;;;;;13.35;7.63;;;;;;;6.00;100.00;92723.50;2130853;27;20031;-71
2022/11/09 02:00:59;;;;;;;9.77;7.78;;;;;;;5.98;100.00;92728.47;2127573;27;20381;-71
2022/11/09 02:02:01;;;;;;;11.88;7.55;;;;;;;5.98;100.00;92720.50;2126377;27;20031;-71
2022/11/09 02:03:31;;;;;;;13.07;6.68;;;;;;;5.96;100.00;92725.44;2130368;27;20087;-72
2022/11/09 02:04:41;;;;;;;11.82;7.03;;;;;;;5.96;100.00;92727.34;2122288;27;20034;-71
2022/11/09 02:05:50;;;;;;;9.52;6.30;;;;;;;6.02;100.00;92725.78;2130382;27;20046;-71
2022/11/09 02:06:54;;;;;;;9.02;6.40;;;;;;;6.03;100.00;92735.97;2122402;27;20038;-70
2022/11/09 02:07:58;;;;;;;10.93;6.07;;;;;;;6.03;100.00;92728.00;2130204;27;20038;-70
2022/11/09 02:09:08;;;;;;;9.23;5.65;;;;;;;6.04;100.00;92726.88;2130701;27;20030;-71
2022/11/09 02:10:16;;;;;;;10.40;5.97;;;;;;;6.00;100.00;92723.50;2130608;27;20046;-71
2022/11/09 02:11:20;;;;;;;9.93;5.60;;;;;;;6.01;100.00;92717.06;2130491;27;20073;-71
2022/11/09 02:12:24;;;;;;;13.73;5.20;;;;;;;6.05;100.00;92727.63;2127030;27;20027;-71
2022/11/09 02:13:27;;;;;;;8.70;5.65;;;;;;;6.08;100.00;92715.47;2130218;27;20027;-71
2022/11/09 02:14:31;;;;;;;10.80;5.45;;;;;;;6.08;100.00;92724.19;2130393;27;20029;-70
2022/11/09 02:15:32;;;;;;;9.43;5.22;;;;;;;6.12;100.00;92710.88;2130489;27;20027;-71
2022/11/09 02:16:35;;;;;;;7.40;5.05;;;;;;;6.13;100.00;92718.44;2129902;27;20172;-71
2022/11/09 02:17:37;;;;;;;9.52;4.93;;;;;;;6.18;100.00;92714.59;2129817;27;20099;-71
2022/11/09 02:18:56;;;;;;;8.80;5.18;;;;;;;6.15;100.00;92720.69;2130138;27;20657;-71
2022/11/09 02:19:57;;;;;;;12.98;5.40;;;;;;;6.13;100.00;92726.38;2127318;27;20035;-71
2022/11/09 02:20:58;;;;;;;7.47;5.15;;;;;;;6.12;100.00;92724.16;2130572;27;20438;-71
2022/11/09 02:22:00;;;;;;;6.53;4.45;;;;;;;6.13;100.00;92720.34;2130483;27;20464;-71
2022/11/09 02:23:02;;;;;;;7.28;4.68;;;;;;;6.13;100.00;92720.34;2128956;27;20031;-72
2022/11/09 02:24:03;;;;;;;8.63;4.93;;;;;;;6.11;100.00;92717.34;2130275;27;20026;-72
2022/11/09 02:25:05;;;;;;;6.97;4.38;;;;;;;6.11;100.00;92715.44;2121357;28;20415;-72
2022/11/09 02:26:12;;;;;;;6.53;4.80;;;;;;;6.13;100.00;92721.09;2121025;27;20138;-71
2022/11/09 02:27:13;;;;;;;6.15;4.20;;;;;;;6.14;100.00;92725.22;2130708;27;20505;-71
2022/11/09 02:28:15;;;;;;;5.15;4.20;;;;;;;6.13;100.00;92722.97;2130008;27;20023;-71
2022/11/09 02:29:24;;;;;;;5.78;4.28;;;;;;;6.15;100.00;92715.41;2130077;27;20840;-71
2022/11/09 02:30:25;;;;;;;5.80;4.30;;;;;;;6.17;100.00;92724.44;2127201;27;20018;-71
2022/11/09 02:31:33;;;;;;;5.95;3.90;;;;;;;6.19;100.00;92716.84;2130277;27;20038;-71
2022/11/09 02:32:34;;;;;;;8.27;4.55;;;;;;;6.19;100.00;92716.84;2130116;27;20022;-71
2022/11/09 02:33:50;;;;;;;6.53;4.43;;;;;;;6.19;100.00;92708.91;2130557;27;20383;-71
2022/11/09 02:34:51;;;;;;;9.63;5.13;;;;;;;6.17;100.00;92710.44;2126090;27;20124;-71
2022/11/09 02:35:52;;;;;;;6.40;4.68;;;;;;;6.15;100.00;92702.88;2130418;27;20167;-71
2022/11/09 02:36:53;;;;;;;6.20;4.28;;;;;;;6.17;100.00;92707.78;2130447;27;20034;-71
2022/11/09 02:37:54;;;;;;;6.80;4.00;;;;;;;6.17;100.00;92705.88;2120798;28;20062;-71
2022/11/09 02:38:56;;;;;;;6.28;3.58;;;;;;;6.19;100.00;92705.47;2121601;27;20035;-71
2022/11/09 02:40:00;;;;;;;10.68;3.90;;;;;;;6.16;100.00;92706.28;2130048;27;20025;-71
2022/11/09 02:41:01;;;;;;;18.40;5.45;;;;;;;6.14;100.00;92711.22;2130586;27;20027;-71
2022/11/09 02:42:07;;;;;;;6.57;4.85;;;;;;;6.16;100.00;92714.25;2130304;27;20109;-71
2022/11/09 02:43:10;;;;;;;9.48;4.75;;;;;;;6.13;100.00;92715.78;2120718;28;20031;-72
2022/11/09 02:44:12;;;;;;;5.88;4.55;;;;;;;6.18;100.00;92709.28;2121827;27;20326;-71
2022/11/09 02:45:13;;;;;;;6.90;4.45;;;;;;;6.17;100.00;92710.44;2121050;28;20446;-71
2022/11/09 02:46:22;;;;;;;7.85;4.75;;;;;;;6.24;100.00;92719.06;2121120;27;20035;-71
2022/11/09 02:47:23;;;;;;;8.15;4.78;;;;;;;6.26;100.00;92716.75;2126646;27;20031;-71
2022/11/09 02:48:24;;;;;;;6.85;4.28;;;;;;;6.22;100.00;92712.63;2130010;27;20023;-71
2022/11/09 02:49:25;;;;;;;7.18;5.03;;;;;;;6.20;100.00;92710.41;2130478;27;20019;-72
2022/11/09 02:50:27;;;;;;;8.35;5.00;;;;;;;6.19;100.00;92710.78;2130387;27;20030;-72
2022/11/09 02:51:28;;;;;;;7.40;4.97;;;;;;;6.20;100.00;92720.25;2130380;27;20067;-72
2022/11/09 02:52:29;;;;;;;8.07;5.28;;;;;;;6.16;100.00;92712.34;2130591;27;20031;-72
2022/11/09 02:53:30;;;;;;;9.02;5.78;;;;;;;6.15;100.00;92713.50;2129831;27;20027;-72
2022/11/09 02:54:31;;;;;;;10.73;5.60;;;;;;;6.15;100.00;92710.09;2130536;27;20027;-72
2022/11/09 02:55:32;;;;;;;7.75;5.03;;;;;;;6.16;100.00;92717.66;2130585;27;20118;-71
2022/11/09 02:56:33;;;;;;;9.52;5.93;;;;;;;6.17;100.00;92718.41;2129723;27;20441;-72
2022/11/09 02:57:34;;;;;;;13.32;5.88;;;;;;;6.18;100.00;92709.28;2130467;27;20368;-72
2022/11/09 02:58:35;;;;;;;11.57;5.60;;;;;;;6.21;100.00;92711.16;2127836;27;20023;-71
2022/11/09 02:59:36;;;;;;;9.40;5.43;;;;;;;6.22;100.00;92710.75;2128560;27;20027;-72
2022/11/09 03:00:37;;;;;;;8.98;5.07;;;;;;;6.24;100.00;92708.44;2130553;27;20046;-72
2022/11/09 03:01:38;;;;;;;11.68;5.45;;;;;;;6.26;100.00;92708.03;2130286;27;20034;-72
2022/11/09 03:02:39;;;;;;;9.30;5.22;;;;;;;6.24;100.00;92713.00;2130405;27;20034;-72
2022/11/09 03:03:40;;;;;;;9.75;5.85;;;;;;;6.26;100.00;92703.50;2130125;27;20031;-71
2022/11/09 03:04:41;;;;;;;7.97;5.18;;;;;;;6.25;100.00;92706.53;2130590;27;20058;-71
2022/11/09 03:05:43;;;;;;;10.18;5.05;;;;;;;6.25;100.00;92711.84;2130638;27;20046;-72
2022/11/09 03:06:43;;;;;;;7.88;5.10;;;;;;;6.24;100.00;92713.00;2130074;27;20027;-71
2022/11/09 03:07:44;;;;;;;7.15;5.43;;;;;;;6.24;100.00;92713.00;2130745;27;20037;-71
2022/11/09 03:08:45;;;;;;;6.57;5.10;;;;;;;6.22;100.00;92713.38;2130127;27;20030;-71
2022/11/09 03:09:46;;;;;;;5.88;4.80;;;;;;;6.24;100.00;92720.97;2130430;27;20042;-71
2022/11/09 03:10:47;;;;;;;5.55;4.35;;;;;;;6.21;100.00;92716.44;2130397;27;20071;-71
2022/11/09 03:11:49;;;;;;;10.60;5.00;;;;;;;6.20;100.00;92712.31;2130214;27;20042;-71
2022/11/09 03:12:50;;;;;;;8.52;4.80;;;;;;;6.20;100.00;92715.69;2130565;27;20077;-72
2022/11/09 03:13:51;;;;;;;9.13;4.72;;;;;;;6.20;100.00;92715.69;2130186;27;20495;-71
2022/11/09 03:14:52;;;;;;;7.28;4.35;;;;;;;6.20;100.00;92718.34;2129673;27;20027;-71
2022/11/09 03:15:54;;;;;;;9.80;4.47;;;;;;;6.24;100.00;92718.31;2130188;27;20035;-72
2022/11/09 03:16:55;;;;;;;6.05;4.45;;;;;;;6.28;100.00;92716.38;2120782;28;20146;-72
2022/11/09 03:17:56;;;;;;;7.70;5.03;;;;;;;6.31;100.00;92716.31;2112560;28;20473;-72
2022/11/09 03:18:57;;;;;;;7.97;4.47;;;;;;;6.30;100.00;92717.47;2121460;27;20675;-72
2022/11/09 03:19:58;;;;;;;8.57;4.68;;;;;;;6.27;100.00;92717.50;2122124;27;20038;-72
2022/11/09 03:21:01;;;;;;;9.82;5.00;;;;;;;6.26;100.00;92716.75;2122757;27;20031;-72
2022/11/09 03:22:02;;;;;;;5.88;4.82;;;;;;;6.27;100.00;92725.47;2122751;27;20031;-72
2022/11/09 03:23:03;;;;;;;9.60;5.18;;;;;;;6.26;100.00;92714.09;2123229;27;20104;-72
2022/11/09 03:24:04;;;;;;;5.53;4.43;;;;;;;6.26;100.00;92722.06;2123454;27;20059;-72
2022/11/09 03:25:06;;;;;;;10.02;4.35;;;;;;;6.27;100.00;92726.22;2118475;27;20028;-72
2022/11/09 03:26:07;;;;;;;7.82;5.10;;;;;;;6.29;100.00;92725.84;2123064;27;20107;-72
2022/11/09 03:27:08;;;;;;;10.13;5.00;;;;;;;6.30;100.00;92724.69;2123306;27;20419;-72
2022/11/09 03:28:09;;;;;;;5.40;4.40;;;;;;;6.29;100.00;92731.16;2123193;27;20031;-72
2022/11/09 03:29:10;;;;;;;5.32;4.60;;;;;;;6.30;100.00;92735.28;2123441;27;20388;-72
2022/11/09 03:30:11;;;;;;;5.85;4.30;;;;;;;6.30;100.00;92730.75;2122660;27;20039;-71
2022/11/09 03:31:12;;;;;;;6.28;4.47;;;;;;;6.33;100.00;92739.06;2123418;27;20027;-72
2022/11/09 03:32:13;;;;;;;5.22;4.45;;;;;;;6.33;100.00;92736.41;2123282;27;20102;-71
2022/11/09 03:33:14;;;;;;;5.70;4.47;;;;;;;6.37;100.00;92743.19;2123199;27;20064;-72
2022/11/09 03:34:15;;;;;;;7.07;4.30;;;;;;;6.50;100.00;92743.41;2123331;27;20100;-71
2022/11/09 03:35:18;;;;;;;4.95;4.40;;;;;;;6.48;100.00;92743.78;2122712;27;20111;-71
2022/11/09 03:36:19;;;;;;;4.70;3.70;;;;;;;6.40;100.00;92737.06;2123099;27;20031;-71
2022/11/09 03:37:20;;;;;;;9.65;4.45;;;;;;;6.38;100.00;92739.38;2119093;27;20081;-71
2022/11/09 03:38:21;;;;;;;7.00;4.57;;;;;;;6.36;100.00;92746.97;2123123;27;20597;-70
2022/11/09 03:39:22;;;;;;;9.10;4.25;;;;;;;6.34;100.00;92754.59;2123332;27;20106;-72
2022/11/09 03:40:23;;;;;;;7.47;3.95;;;;;;;6.31;100.00;92750.06;2122643;27;20027;-70
2022/11/09 03:41:24;;;;;;;5.75;4.10;;;;;;;6.30;100.00;92745.91;2123310;27;20019;-70
2022/11/09 03:42:25;;;;;;;8.68;3.97;;;;;;;6.32;100.00;92759.53;2123346;27;20019;-70
2022/11/09 03:43:27;;;;;;;7.70;3.55;;;;;;;6.34;100.00;92751.19;2123212;27;20397;-70
2022/11/09 03:44:28;;;;;;;9.93;4.18;;;;;;;6.39;100.00;92745.44;2123142;27;20042;-70
2022/11/09 03:45:29;;;;;;;7.05;4.43;;;;;;;6.38;100.00;92759.88;2122486;27;20043;-70
2022/11/09 03:46:31;;;;;;;7.25;4.30;;;;;;;6.34;100.00;92754.59;2122853;27;20027;-70
2022/11/09 03:47:32;;;;;;;9.75;4.10;;;;;;;6.42;100.00;92755.25;2123293;27;20030;-70
2022/11/09 03:48:33;;;;;;;5.82;4.38;;;;;;;6.45;100.00;92754.44;2123246;27;20027;-71
2022/11/09 03:49:34;;;;;;;9.80;4.15;;;;;;;6.44;100.00;92768.88;2122895;27;20049;-71
2022/11/09 03:50:39;;;;;;;4.90;4.13;;;;;;;6.37;100.00;92767.06;2120714;27;20445;-70
2022/11/09 03:51:40;;;;;;;5.03;3.95;;;;;;;6.33;100.00;92760.31;2121773;27;20503;-70
2022/11/09 03:52:45;;;;;;;9.23;4.65;;;;;;;6.31;100.00;92763.34;2123207;27;20075;-70
2022/11/09 03:53:46;;;;;;;6.53;4.15;;;;;;;6.31;100.00;92756.13;2123265;27;20059;-70
2022/11/09 03:54:47;;;;;;;6.90;4.20;;;;;;;6.29;100.00;92755.78;2122936;27;20038;-70
2022/11/09 03:55:48;;;;;;;6.47;4.05;;;;;;;6.31;100.00;92760.69;2122408;27;20039;-70
2022/11/09 03:56:49;;;;;;;5.90;3.63;;;;;;;6.31;100.00;92758.03;2122985;27;20031;-70
2022/11/09 03:57:50;;;;;;;4.40;4.00;;;;;;;6.28;100.00;92751.63;2118999;27;20034;-70
2022/11/09 03:58:50;;;;;;;5.30;3.50;;;;;;;6.35;100.00;92761.41;2123229;27;20080;-70
2022/11/09 03:59:51;;;;;;;5.65;3.83;;;;;;;6.30;100.00;92753.88;2122858;27;20054;-70
2022/11/09 04:00:52;;;;;;;7.05;4.30;;;;;;;6.47;100.00;92758.22;2122427;27;20039;-70
2022/11/09 04:01:53;;;;;;;6.32;3.72;;;;;;;6.43;100.00;92762.81;2123052;27;20143;-70
2022/11/09 04:02:55;;;;;;;8.65;3.90;;;;;;;6.43;100.00;92756.75;2123238;27;20688;-69
2022/11/09 04:03:56;;;;;;;4.95;4.10;;;;;;;6.40;100.00;92753.00;2123392;27;20088;-71
2022/11/09 04:04:57;;;;;;;8.30;4.10;;;;;;;6.42;100.00;92760.56;2121514;27;20039;-70
2022/11/09 04:05:58;;;;;;;7.60;4.22;;;;;;;6.41;100.00;92761.69;2121607;27;20027;-71
2022/11/09 04:06:59;;;;;;;4.97;4.00;;;;;;;6.39;100.00;92761.34;2120203;27;20031;-70
2022/11/09 04:08:00;;;;;;;4.05;3.65;;;;;;;6.39;100.00;92762.09;2122442;27;20373;-70
2022/11/09 04:09:01;;;;;;;4.93;4.10;;;;;;;6.36;100.00;92765.56;2122984;27;20026;-70
2022/11/09 04:10:03;;;;;;;3.85;3.35;;;;;;;6.37;100.00;92758.38;2122886;27;20484;-70
2022/11/09 04:11:04;;;;;;;5.38;3.90;;;;;;;6.36;100.00;92762.91;2122954;27;20031;-71
2022/11/09 04:12:05;;;;;;;6.05;3.40;;;;;;;6.41;100.00;92767.00;2120821;27;20051;-71
2022/11/09 04:13:07;;;;;;;7.93;4.05;;;;;;;6.47;100.00;92763.53;2123006;27;20046;-70
2022/11/09 04:14:08;;;;;;;4.00;3.53;;;;;;;6.44;100.00;92747.66;2122927;27;20031;-70
2022/11/09 04:15:10;;;;;;;7.18;4.22;;;;;;;6.51;100.00;92756.28;2123073;27;20536;-70
2022/11/09 04:16:11;;;;;;;6.00;4.07;;;;;;;6.51;100.00;92747.56;2122250;27;20023;-70
2022/11/09 04:17:12;;;;;;;6.25;5.22;;;;;;;6.55;100.00;92756.25;2130202;27;20042;-70
2022/11/09 04:18:14;;;;;;;7.65;6.25;;;;;;;6.57;100.00;92760.00;2131575;27;20050;-70
2022/11/09 04:19:15;;;;;;;5.97;5.15;;;;;;;6.59;100.00;92756.19;2131317;27;20700;-70
2022/11/09 04:20:16;;;;;;;10.45;7.40;;;;;;;6.56;100.00;92753.19;2131431;27;20031;-70
2022/11/09 04:21:17;;;;;;;11.10;8.40;;;;;;;6.61;100.00;92748.56;2131272;27;20023;-70
2022/11/09 04:22:18;;;;;;;11.88;9.27;;;;;;;6.66;100.00;92740.91;2130627;27;20144;-70
2022/11/09 04:23:19;;;;;;;5.68;4.70;;;;;;;6.78;100.00;92745.69;2131551;27;20384;-70
2022/11/09 04:24:20;;;;;;;7.18;3.97;;;;;;;6.75;100.00;92738.50;2127171;27;20023;-70
2022/11/09 04:25:21;;;;;;;6.03;3.90;;;;;;;6.78;100.00;92743.03;2131552;27;20023;-69
2022/11/09 04:26:22;;;;;;;5.63;3.58;;;;;;;6.91;100.00;92742.50;2130900;27;20409;-70
2022/11/09 04:27:23;;;;;;;8.13;3.92;;;;;;;6.88;100.00;92730.75;2129974;27;20034;-69
2022/11/09 04:28:24;;;;;;;6.13;3.65;;;;;;;6.88;100.00;92737.97;2131541;27;20022;-69
2022/11/09 04:29:25;;;;;;;5.97;3.50;;;;;;;6.85;100.00;92744.06;2131553;27;20030;-70
2022/11/09 04:30:28;;;;;;;6.55;3.67;;;;;;;6.86;100.00;92741.03;2122084;27;20082;-70
2022/11/09 04:31:29;;;;;;;4.55;3.35;;;;;;;6.90;100.00;92741.75;2122334;27;20027;-70
2022/11/09 04:32:29;;;;;;;6.07;3.80;;;;;;;6.86;100.00;92733.06;2130471;27;20130;-69
2022/11/09 04:33:30;;;;;;;8.65;4.25;;;;;;;6.86;100.00;92740.28;2131500;27;20034;-71
2022/11/09 04:34:31;;;;;;;13.73;3.75;;;;;;;6.78;100.00;92739.63;2131462;27;20098;-69
2022/11/09 04:35:32;;;;;;;3.72;3.28;;;;;;;6.86;100.00;92738.38;2131388;27;20026;-70
2022/11/09 04:36:33;;;;;;;7.00;3.35;;;;;;;6.94;100.00;92731.81;2130920;27;20114;-71
2022/11/09 04:37:34;;;;;;;5.38;3.55;;;;;;;6.92;100.00;92733.34;2130569;27;20026;-70
2022/11/09 04:38:35;;;;;;;5.50;3.60;;;;;;;6.90;100.00;92736.44;2131458;27;20027;-70
2022/11/09 04:39:36;;;;;;;4.57;3.47;;;;;;;6.86;100.00;92740.28;2131458;27;20034;-71
2022/11/09 04:40:38;;;;;;;6.93;3.40;;;;;;;6.79;100.00;92735.81;2131288;27;20441;-70
2022/11/09 04:41:39;;;;;;;4.32;3.45;;;;;;;6.73;100.00;92732.09;2131451;27;20019;-70
2022/11/09 04:42:40;;;;;;;5.35;3.50;;;;;;;6.71;100.00;92732.50;2130516;27;20046;-70
2022/11/09 04:43:41;;;;;;;5.00;3.38;;;;;;;6.70;100.00;92738.97;2131340;27;20027;-70
2022/11/09 04:44:42;;;;;;;5.65;3.78;;;;;;;6.70;100.00;92738.22;2131402;27;20040;-70
2022/11/09 04:45:43;;;;;;;9.30;4.10;;;;;;;6.68;100.00;92741.28;2131492;27;20045;-71
2022/11/09 04:46:44;;;;;;;4.50;3.80;;;;;;;6.69;100.00;92742.03;2131280;27;20043;-70
2022/11/09 04:47:45;;;;;;;6.03;3.53;;;;;;;6.67;100.00;92742.44;2130394;27;20031;-70
2022/11/09 04:48:46;;;;;;;4.30;3.83;;;;;;;6.66;100.00;92735.59;2131495;27;20035;-71
2022/11/09 04:49:47;;;;;;;10.13;4.45;;;;;;;6.67;100.00;92729.16;2131251;27;20376;-71
2022/11/09 04:50:48;;;;;;;7.18;4.00;;;;;;;6.64;100.00;92729.19;2131327;27;20129;-71
2022/11/09 04:51:49;;;;;;;5.90;4.00;;;;;;;6.70;100.00;92728.34;2131353;27;20034;-70